This is the latest recevied weather packets stored in our database for station/object DG7AA-13. If no packets are shown the sender has not sent any weather packets the latest 10 day(s).
| Time | Temp. | Humidity | Pressure | Rain* | Wind** | Luminosity | Snow |
|---|---|---|---|---|---|---|---|
| 1777290322 | 17.22° C | 36% | - | 0 mm | - | - | - |
| 1777289730 | 17.22° C | 35% | - | 0 mm | - | - | - |
| 1777289122 | 18.33° C | 36% | - | 0 mm | - | - | - |
| 1777288530 | 17.22° C | 38% | - | 0 mm | - | - | - |
| 1777287925 | 17.22° C | 37% | - | 0 mm | - | - | - |
| 1777287330 | 16.11° C | 38% | - | 0 mm | - | - | - |
| 1777286732 | 16.11° C | 38% | - | 0 mm | - | - | - |
| 1777286125 | 16.11° C | 37% | - | 0 mm | - | - | - |
| 1777285522 | 16.67° C | 41% | - | 0 mm | - | - | - |
| 1777284930 | 15° C | 45% | - | 0 mm | - | - | - |
| 1777284325 | 15° C | 44% | - | 0 mm | - | - | - |
| 1777283730 | 15° C | 44% | - | 0 mm | - | - | - |
| 1777283122 | 15.56° C | 45% | - | 0 mm | - | - | - |
| 1777282530 | 15° C | 45% | - | 0 mm | - | - | - |
| 1777281926 | 15° C | 47% | - | 0 mm | - | - | - |
| 1777281330 | 14.44° C | 45% | - | 0 mm | - | - | - |
| 1777280723 | 13.89° C | 51% | - | 0 mm | - | - | - |
| 1777280130 | 13.89° C | 52% | - | 0 mm | - | - | - |
| 1777279522 | 14.44° C | 50% | - | 0 mm | - | - | - |
| 1777278930 | 13.33° C | 56% | - | 0 mm | - | - | - |
| 1777278322 | 13.33° C | 55% | - | 0 mm | - | - | - |
| 1777277730 | 13.33° C | 55% | - | 0 mm | - | - | - |
| 1777277125 | 12.78° C | 58% | - | 0 mm | - | - | - |
| 1777276533 | 11.11° C | 68% | - | 0 mm | - | - | - |
| 1777275922 | 8.89° C | 76% | - | 0 mm | - | - | - |
* Rain latest hour (hover to see other rain measurements)
** Current wind speed in m/s (hover to see current wind gust speed)